createdAt,value
2019-06-07T00:05:07.690Z,11.35
2019-06-07T00:10:36.521Z,14.23
2019-06-07T00:15:54.596Z,12.28
2019-06-07T00:21:17.883Z,10.58
2019-06-07T00:26:57.069Z,13.90
2019-06-07T00:32:04.130Z,13.62
2019-06-07T00:37:25.837Z,13.88
2019-06-07T00:42:47.602Z,10.80
2019-06-07T00:48:16.010Z,13.83
2019-06-07T00:53:32.919Z,13.78
2019-06-07T00:59:10.774Z,12.63
2019-06-07T01:04:20.763Z,11.48
2019-06-07T01:09:41.565Z,12.07
2019-06-07T01:15:03.369Z,15.08
2019-06-07T01:20:27.298Z,16.45
2019-06-07T01:25:49.012Z,14.07
2019-06-07T01:31:10.787Z,13.08
2019-06-07T01:36:32.494Z,15.23
2019-06-07T01:41:54.346Z,13.95
2019-06-07T01:47:17.853Z,17.27
2019-06-07T01:52:39.563Z,15.03
2019-06-07T01:58:01.327Z,14.00
2019-06-07T02:03:28.794Z,12.60
2019-06-07T02:08:46.555Z,14.63
2019-06-07T02:14:08.970Z,11.40
2019-06-07T02:19:32.740Z,13.55
2019-06-07T02:25:34.488Z,14.70
2019-06-07T02:35:41.934Z,15.38
2019-06-07T02:41:03.628Z,12.75
2019-06-07T02:46:38.157Z,12.20
2019-06-07T02:51:50.025Z,12.40
2019-06-07T02:57:11.748Z,14.68
2019-06-07T03:02:41.208Z,16.23
2019-06-07T03:08:00.089Z,19.87
2019-06-07T03:13:28.912Z,16.05
2019-06-07T03:18:56.859Z,14.80
2019-06-07T03:24:18.580Z,16.97
2019-06-07T03:29:41.353Z,15.60
2019-06-07T03:35:03.411Z,12.68
2019-06-07T03:40:25.213Z,15.85
2019-06-07T03:45:46.924Z,14.38
2019-06-07T03:51:24.024Z,20.43
2019-06-07T03:56:33.721Z,13.03
2019-06-07T04:01:55.504Z,14.78
2019-06-07T04:07:17.206Z,16.30
2019-06-07T04:12:43.489Z,19.00
2019-06-07T04:18:04.061Z,14.47
2019-06-07T04:23:30.038Z,19.80
2019-06-07T04:34:13.732Z,17.42
2019-06-07T04:39:43.607Z,17.20
2019-06-07T04:45:00.061Z,18.12
2019-06-07T04:50:22.705Z,20.23
2019-06-07T04:55:44.405Z,24.80
2019-06-07T05:01:24.361Z,21.87
2019-06-07T05:06:30.054Z,22.05
2019-06-07T05:11:52.668Z,20.52
2019-06-07T05:17:14.411Z,22.30
2019-06-07T05:22:40.779Z,20.68
2019-06-07T05:27:59.574Z,20.02
2019-06-07T05:33:22.159Z,22.52
2019-06-07T05:38:45.010Z,21.87
2019-06-07T05:44:12.740Z,23.20
2019-06-07T05:49:32.901Z,23.40
2019-06-07T05:54:55.027Z,25.50
2019-06-07T06:00:18.443Z,21.23
2019-06-07T06:05:48.194Z,21.77
2019-06-07T06:11:03.707Z,20.65
2019-06-07T06:16:25.459Z,24.55
2019-06-07T06:21:48.604Z,21.33
2019-06-07T06:27:28.465Z,20.05
2019-06-07T06:32:48.832Z,22.22
2019-06-07T06:37:57.970Z,22.00
2019-06-07T06:43:21.271Z,17.85
2019-06-07T06:48:48.242Z,21.90
2019-06-07T06:54:06.473Z,22.52
2019-06-07T06:59:38.631Z,17.60
2019-06-07T07:04:54.092Z,20.77
2019-06-07T07:10:17.958Z,18.37
2019-06-07T07:15:39.772Z,24.90
2019-06-07T07:21:01.569Z,25.23
2019-06-07T07:26:23.295Z,26.27
2019-06-07T07:31:45.603Z,19.67
2019-06-07T07:37:08.486Z,20.70
2019-06-07T07:42:30.262Z,18.10
2019-06-07T07:48:08.271Z,28.17
2019-06-07T07:53:15.645Z,19.95
2019-06-07T07:58:37.412Z,23.38
2019-06-07T08:03:59.218Z,28.90
2019-06-07T08:09:21.014Z,25.77
2019-06-07T08:14:42.733Z,21.65
2019-06-07T08:20:04.976Z,17.40
2019-06-07T08:25:29.073Z,23.55
2019-06-07T08:30:57.579Z,20.68
2019-06-07T08:36:21.887Z,22.95
2019-06-07T08:41:53.489Z,23.03
2019-06-07T08:47:19.259Z,19.20
2019-06-07T08:52:26.322Z,19.40
2019-06-07T08:57:48.724Z,19.77
2019-06-07T09:03:10.910Z,17.15
2019-06-07T09:08:32.622Z,17.35
2019-06-07T09:13:57.056Z,16.48
2019-06-07T09:19:17.875Z,19.23
2019-06-07T09:24:39.624Z,17.75
2019-06-07T09:30:08.074Z,18.75
2019-06-07T09:35:26.318Z,14.45
2019-06-07T09:40:48.298Z,17.52
2019-06-07T09:46:14.725Z,21.95
2019-06-07T09:51:33.522Z,15.53
2019-06-07T09:56:55.346Z,19.02
2019-06-07T10:02:17.244Z,19.48
2019-06-07T10:07:57.253Z,16.37
2019-06-07T10:13:04.080Z,15.20
2019-06-07T10:18:25.969Z,17.75
2019-06-07T10:23:47.790Z,13.95
2019-06-07T10:29:10.352Z,13.62
2019-06-07T10:34:32.176Z,12.65
2019-06-07T10:39:53.948Z,13.48
2019-06-07T10:45:16.994Z,13.32
2019-06-07T10:50:38.840Z,30.92
2019-06-07T10:56:00.632Z,15.53
2019-06-07T11:01:22.734Z,10.70
2019-06-07T11:06:44.534Z,16.32
2019-06-07T11:12:06.585Z,11.12
2019-06-07T11:17:28.417Z,14.65
2019-06-07T11:22:50.200Z,11.22
2019-06-07T11:28:14.491Z,10.40
2019-06-07T11:33:36.762Z,10.55
2019-06-07T11:38:58.465Z,12.37
2019-06-07T11:44:20.257Z,12.82
2019-06-07T11:49:41.972Z,12.78
2019-06-07T11:55:03.692Z,12.28
2019-06-07T12:00:34.013Z,15.50
2019-06-07T12:05:53.769Z,12.20
2019-06-07T12:11:16.549Z,14.87
2019-06-07T12:16:38.417Z,12.05
2019-06-07T12:22:00.152Z,7.85
2019-06-07T12:27:21.922Z,10.32
2019-06-07T12:32:43.674Z,8.03
2019-06-07T12:38:05.992Z,6.30
2019-06-07T12:43:27.740Z,9.18
2019-06-07T12:48:49.474Z,6.05
2019-06-07T12:54:11.309Z,9.05
2019-06-07T12:59:33.003Z,8.40
2019-06-07T13:04:55.130Z,8.15
2019-06-07T13:10:17.984Z,7.28
2019-06-07T13:15:39.964Z,8.50
2019-06-07T13:21:01.771Z,6.75
2019-06-07T13:26:24.929Z,7.22
2019-06-07T13:31:46.986Z,6.70
2019-06-07T13:37:08.671Z,7.45
2019-06-07T13:42:30.377Z,7.78
2019-06-07T13:47:52.182Z,5.03
2019-06-07T13:53:13.993Z,5.00
2019-06-07T13:58:35.834Z,9.75
2019-06-07T14:03:59.195Z,5.05
2019-06-07T14:09:21.150Z,7.08
2019-06-07T14:14:42.982Z,6.97
2019-06-07T14:20:05.382Z,8.10
2019-06-07T14:25:29.248Z,7.65
2019-06-07T14:30:51.228Z,7.12
2019-06-07T14:36:13.443Z,12.75
2019-06-07T14:41:35.131Z,6.20
2019-06-07T14:46:56.844Z,6.22
2019-06-07T14:52:18.720Z,13.00
2019-06-07T14:57:41.259Z,12.95
2019-06-07T15:03:02.983Z,7.40
2019-06-07T15:08:24.909Z,7.67
2019-06-07T15:13:46.627Z,10.40
2019-06-07T15:19:08.402Z,9.00
2019-06-07T15:24:33.665Z,9.68
2019-06-07T15:29:53.519Z,8.55
2019-06-07T15:35:16.925Z,5.80
2019-06-07T15:40:39.671Z,5.78
2019-06-07T15:46:05.908Z,6.40
2019-06-07T15:51:27.594Z,6.28
2019-06-07T15:56:49.321Z,4.97
2019-06-07T16:02:11.068Z,5.17
2019-06-07T16:07:34.062Z,5.72
2019-06-07T16:13:00.698Z,5.55
2019-06-07T16:18:19.309Z,6.08
2019-06-07T16:23:42.131Z,6.55
2019-06-07T16:29:04.031Z,9.83
2019-06-07T16:34:25.757Z,9.98
2019-06-07T16:39:48.565Z,7.58
2019-06-07T16:45:11.977Z,9.73
2019-06-07T16:50:33.919Z,6.85
2019-06-07T16:55:55.661Z,7.08
2019-06-07T17:01:17.480Z,4.75
2019-06-07T17:06:41.681Z,5.65
2019-06-07T17:12:03.595Z,5.78
2019-06-07T17:17:25.307Z,5.33
2019-06-07T17:22:47.629Z,5.72
2019-06-07T17:28:09.314Z,6.78
2019-06-07T17:33:31.048Z,7.22
2019-06-07T17:38:52.796Z,6.92
2019-06-07T17:44:14.600Z,8.23
2019-06-07T17:49:36.357Z,6.60
2019-06-07T17:54:58.119Z,10.25
2019-06-07T18:00:29.354Z,5.97
2019-06-07T18:05:45.198Z,15.78
2019-06-07T18:11:07.073Z,9.05
2019-06-07T18:16:29.267Z,7.70
2019-06-07T18:21:55.561Z,6.35
2019-06-07T18:27:14.414Z,7.12
2019-06-07T18:32:36.162Z,6.60
2019-06-07T18:37:57.872Z,8.80
2019-06-07T18:43:19.574Z,7.08
2019-06-07T18:48:41.325Z,7.37
2019-06-07T18:54:03.061Z,10.25
2019-06-07T18:59:24.790Z,9.58
2019-06-07T19:04:47.900Z,26.35
2019-06-07T19:10:11.737Z,10.70
2019-06-07T19:15:35.056Z,7.62
2019-06-07T19:20:56.792Z,7.87
2019-06-07T19:26:18.500Z,7.53
2019-06-07T19:31:40.307Z,8.60
2019-06-07T19:37:02.181Z,30.08
2019-06-07T19:42:24.080Z,8.78
2019-06-07T19:47:45.993Z,10.03
2019-06-07T19:53:07.735Z,8.25
2019-06-07T19:58:29.466Z,8.93
2019-06-07T20:03:51.191Z,49.33
2019-06-07T20:09:13.170Z,13.32
2019-06-07T20:14:34.932Z,10.45
2019-06-07T20:19:56.660Z,11.10
2019-06-07T20:25:19.199Z,8.30
2019-06-07T20:30:41.017Z,12.88
2019-06-07T20:36:02.800Z,11.90
2019-06-07T20:41:24.509Z,10.15
2019-06-07T20:46:46.255Z,10.05
2019-06-07T20:52:09.570Z,10.07
2019-06-07T20:57:32.950Z,13.47
2019-06-07T21:02:56.235Z,11.23
2019-06-07T21:08:19.638Z,11.07
2019-06-07T21:13:42.970Z,11.10
2019-06-07T21:19:06.587Z,12.57
2019-06-07T21:24:29.860Z,14.07
2019-06-07T21:29:53.123Z,14.23
2019-06-07T21:35:18.038Z,10.70
2019-06-07T21:40:40.932Z,10.70
2019-06-07T21:46:08.171Z,11.93
2019-06-07T21:51:29.320Z,13.77
2019-06-07T21:56:52.632Z,11.13
2019-06-07T22:02:16.367Z,16.10
2019-06-07T22:07:39.902Z,16.42
2019-06-07T22:13:03.912Z,19.60
2019-06-07T22:18:27.035Z,15.85
2019-06-07T22:23:50.014Z,16.93
2019-06-07T22:29:14.397Z,17.42
2019-06-07T22:34:37.797Z,17.80
2019-06-07T22:40:01.101Z,22.90
2019-06-07T22:45:24.960Z,28.13
2019-06-07T22:50:48.247Z,20.10
2019-06-07T22:56:13.927Z,18.30
2019-06-07T23:01:37.441Z,22.30
2019-06-07T23:07:00.696Z,23.20
2019-06-07T23:12:23.965Z,21.73
2019-06-07T23:17:47.047Z,20.72
2019-06-07T23:23:10.095Z,23.38
2019-06-07T23:28:33.440Z,20.67
2019-06-07T23:33:56.745Z,23.23
2019-06-07T23:39:22.022Z,22.93
2019-06-07T23:44:45.062Z,23.93
2019-06-07T23:50:09.170Z,22.50
2019-06-07T23:55:32.538Z,18.90
